Cincinnati, OH

6:07 PM EST on November 28, 2014 (GMT -0500)
Hook Field Municipal | Change Station
CLOSE
Current Station
Airport
Location: Middletown,
Elevation: 650 ft
Nearby Weather Stations

Elev 650 ft 39.53 °N, 84.40 °W | Updated 12 minutes ago

Partly Cloudy
Partly Cloudy
34 °F
Feels Like 26 °F
N
10
Wind Variable Wind from SSE

Today
High -- | Low -- °F
--% Chance of Precip.
Yesterday
High -- | Low -- °F
Precip. -- in
7:35 AM 5:16 PM
Waxing Crescent, 45% visible
Pressure 30.19 in
Visibility 10.0 miles
Clouds Clear
Windchill 26 °F
Dew Point 14 °F
Humidity 44%
Rainfall 0.00 in
Snow Depth Not available.
UV 0 out of 12
Pollen .10 out of 12
Air Quality Not available.
Flu Activity Not available.
METAR KMWO 282255Z AUTO 16009KT 10SM CLR 01/M10 A3019 RMK AO2 T00131099

More Conditions Fewer Conditions

Pressure 30.19 in
Visibility 10.0 miles
Clouds Clear
Windchill 26 °F
Dew Point 14 °F
Humidity 44%
Rainfall 0.00 in
Snow Depth Not available.
UV 0 out of 12
Pollen .10 out of 12
Air Quality Not available.
Flu Activity Not available.
METAR KMWO 282255Z AUTO 16009KT 10SM CLR 01/M10 A3019 RMK AO2 T00131099

More Conditions Fewer Conditions

10-Day Weather Forecast

Almanac

Astronomy

Nov. 28, 2014 Rise Set
Actual Time
Civil Twilight
Nautical Twilight
Astronomical Twilight
Moon
Length of Visible Light
Length of Day
Tomorrow will be .
, % of the Moon is Illuminated

Today's Extremes

State Highs State Lows

Community

WunderPhotos

Upload Photos

1,774,324 photos uploaded!

WunderBlogs® & News

Nearby

Air Quality

  Air Quality AQ Index Pollutant
Not available.

Snow Depth

Station Depth Elevation

Earthquake Activity

City Distance Mag. Time & Date
Minimum magnitude displayed is 2.5.

Coastal Water Temperatures

Place Temperature

Nearby Weather Stations